KAMA/AMA METAR and TAF weather

Enter ICAO airport designator
Station Type Date Time Source
KAMA METAR 2019/08/22 03:04 UTC NOAA

KAMA 220304Z 30024G32KT 10SM -RA FEW060 SCT090 OVC110 21/16 A3005 RMK AO2 PK WND 30032/0303 LTG DSNT ALQDS P0002 T02060156


Station Type Date Time Source
KAMA Decoded METAR 2019/08/22 03:04 UTC NOAA

Station name not available
Aug 21, 2019 - 11:04 PM EDT / 2019.08.22 0304 UTC
Wind: from the WNW (300 degrees) at 28 MPH (24 KT) gusting to 37 MPH (32 KT):0
Visibility: 10 mile(s):0
Sky conditions: overcast
Weather: light rain; Lightning observed
Precipitation last hour: 0.02 inches
Temperature: 69.1 F (20.6 C)
Dew Point: 60.1 F (15.6 C)
Relative Humidity: 73%
Pressure (altimeter): 30.05 in. Hg (1017 hPa)
ob: KAMA 220304Z 30024G32KT 10SM -RA FEW060 SCT090 OVC110 21/16 A3005 RMK AO2 PK WND 30032/0303 LTG DSNT ALQDS P0002 T02060156
cycle: 3

Station Type Date Time Source
KAMA TAF 2019/08/21 20:27 UTC NOAA

TAF
AMD KAMA 212023Z 2120/2218 20012KT P6SM SCT080 BKN250
TEMPO 2120/2124 VRB25G35KT 5SM TSRA BKN050CB
FM220300 17011KT P6SM BKN150 PROB30 2205/2210 4SM TSRA OVC035CB
FM221600 24008KT P6SM SCT200

Example: see airport list